Taurus — WDB5562 — position and weather

sailwx.info

Track history (hours):
 
Tides and Currents Weather Stations Pressure Air Temp Water Temp Dewpoint Dewpoint Depression Visibility Wind Speed Wind Dir Waves Ship Positions

Taurus

Owner: Kirby Offshore Marine, LLC, Staten Island, NY. More information available from US FCC via Universal Licensing System and Coast Guard Vessel Documentation Center.

Last reported at 2015-Apr-02 05:33 UTC. Time now 2015-Apr-02 06:32 UTC.
Position N 40°38' W 074°10'.

Length 24 m.

Type: Tug. MMSI: 366910990.

Date/timePositionNaut miles runAvg speedWind from/ knotsBaromVisibWave heightAir tempDewpointWater temp
2015-Apr-02 05:33N 40°38' W 074°10'0 0.0
2015-Apr-02 04:33N 40°38' W 074°10'0 0.0
2015-Apr-02 03:33N 40°38' W 074°10'0 0.0
2015-Apr-02 02:33N 40°38' W 074°10'0 0.0
2015-Apr-02 01:33N 40°38' W 074°10'0 0.0
2015-Apr-02 00:33N 40°38' W 074°10'0 0.0
2015-Apr-01 23:33N 40°38' W 074°10'0 0.0
2015-Apr-01 22:33N 40°38' W 074°10'1 0.8
2015-Apr-01 21:33N 40°39' W 074°11'5 5.0
2015-Apr-01 20:34N 40°40' W 074°04'0 0.0
2015-Apr-01 19:33N 40°40' W 074°04'0 0.0
2015-Apr-01 18:33N 40°40' W 074°04'0 0.0
2015-Apr-01 17:33N 40°40' W 074°04'3 3.5
2015-Apr-01 16:33N 40°38' W 074°09'1 0.9
2015-Apr-01 15:33N 40°38' W 074°10'0 0.0
2015-Apr-01 14:33N 40°38' W 074°10'0 0.0
2015-Apr-01 13:33N 40°38' W 074°10'0 0.0
2015-Apr-01 12:33N 40°38' W 074°10'0 0.0
2015-Apr-01 11:33N 40°38' W 074°10'0 0.0
2015-Apr-01 10:33N 40°38' W 074°10'0 0.0
2015-Apr-01 09:33N 40°38' W 074°10'0 0.0
2015-Apr-01 08:33N 40°38' W 074°10'0 0.0
2015-Apr-01 07:33N 40°38' W 074°10'0 0.0
2015-Apr-01 06:33N 40°38' W 074°10'0 0.0
2015-Apr-01 05:33N 40°38' W 074°10'4 4.3
2015-Apr-01 04:33N 40°40' W 074°04'1 0.6
2015-Apr-01 03:33N 40°39' W 074°05'7 6.8
2015-Apr-01 02:30N 40°35' W 074°13'3 2.9
2015-Apr-01 01:33N 40°33' W 074°15'5 4.9
2015-Apr-01 00:33N 40°37' W 074°12'2 2.2
2015-Mar-31 23:33N 40°38' W 074°10'0 0.0
2015-Mar-31 22:33N 40°38' W 074°10'0 0.0
2015-Mar-31 21:33N 40°38' W 074°10'0 0.0
2015-Mar-31 20:33N 40°38' W 074°10'0 0.0
2015-Mar-31 19:33N 40°38' W 074°10'0 0.0
2015-Mar-31 18:33N 40°38' W 074°10'1 0.7
2015-Mar-31 17:33N 40°39' W 074°11'7 6.7
2015-Mar-31 16:32N 40°33' W 074°15'2 2.2
2015-Mar-31 15:30N 40°34' W 074°13'5 5.7
2015-Mar-31 14:33N 40°39' W 074°08'3 3.3
2015-Mar-31 13:33N 40°39' W 074°04'5 5.4
2015-Mar-31 12:33N 40°43' W 073°59'7 6.8
2015-Mar-31 11:33N 40°48' W 073°54'7 6.3
2015-Mar-31 10:25N 40°51' W 073°45'10 7.8
2015-Mar-31 09:11N 40°58' W 073°35'5 8.2
2015-Mar-31 08:33N 41°00' W 073°29'8 8.1
2015-Mar-31 07:33N 41°03' W 073°20'9 7.9
2015-Mar-31 06:21N 41°06' W 073°08'6 8.0
2015-Mar-31 05:33N 41°10' W 073°01'7 7.2
2015-Mar-31 04:33N 41°16' W 072°55'2 2.4
2015-Mar-31 03:33N 41°18' W 072°54'0 0.0
2015-Mar-31 02:33N 41°18' W 072°54'0 0.0
2015-Mar-31 01:33N 41°18' W 072°54'0 0.0
2015-Mar-31 00:27N 41°18' W 072°54'0 0.0
2015-Mar-30 23:32N 41°18' W 072°54'0 0.0
2015-Mar-30 22:28N 41°18' W 072°54'0 0.0
2015-Mar-30 21:32N 41°18' W 072°54'0 0.0
2015-Mar-30 20:33N 41°18' W 072°54'0 0.0
2015-Mar-30 19:33N 41°18' W 072°54'0 0.0
2015-Mar-30 18:33N 41°18' W 072°54'1 0.5
2015-Mar-30 17:33N 41°18' W 072°54'0 0.0
2015-Mar-30 16:32N 41°18' W 072°54'0 0.0
2015-Mar-30 15:32N 41°18' W 072°54'0 0.0
2015-Mar-30 14:33N 41°18' W 072°54'0 0.2
2015-Mar-30 13:33N 41°17' W 072°55'6 6.5
2015-Mar-30 12:34N 41°12' W 072°58'8 7.6
2015-Mar-30 11:33N 41°07' W 073°06'7 7.2
2015-Mar-30 10:34N 41°04' W 073°15'7 7.2
2015-Mar-30 09:34N 41°02' W 073°24'7 7.4
2015-Mar-30 08:34N 40°59' W 073°33'9 7.7
2015-Mar-30 07:25N 40°54' W 073°42'8 7.7
2015-Mar-30 06:24N 40°48' W 073°50'7 7.8
2015-Mar-30 05:34N 40°45' W 073°58'7 6.9
2015-Mar-30 04:33N 40°40' W 074°03'7 6.8
2015-Mar-30 03:33N 40°38' W 074°12'2 2.3
2015-Mar-30 02:34N 40°36' W 074°12'3 2.9
2015-Mar-30 01:34N 40°38' W 074°10'0 0.0
2015-Mar-30 00:34N 40°38' W 074°10'3 2.5
2015-Mar-29 23:33N 40°39' W 074°07'0 0.0
2015-Mar-29 22:34N 40°39' W 074°07'1 0.5
2015-Mar-29 21:34N 40°39' W 074°07'2 2.0
2015-Mar-29 20:34N 40°38' W 074°10'0 0.0
2015-Mar-29 19:34N 40°38' W 074°10'0 0.0
2015-Mar-29 18:34N 40°38' W 074°10'3 2.9
2015-Mar-29 17:33N 40°36' W 074°12'6 6.1
2015-Mar-29 16:33N 40°39' W 074°05'9 8.8
2015-Mar-29 15:33N 40°46' W 073°57'8 8.4
2015-Mar-29 14:33N 40°49' W 073°47'11 8.6
2015-Mar-29 13:16N 40°57' W 073°38'6 8.8
2015-Mar-29 12:33N 40°60' W 073°30'9 8.8
2015-Mar-29 11:33N 41°03' W 073°20'9 8.8
2015-Mar-29 10:33N 41°06' W 073°09'9 9.2
2015-Mar-29 09:34N 41°12' W 072°59'7 7.2
2015-Mar-29 08:33N 41°18' W 072°54'0 0.0
2015-Mar-29 07:33N 41°18' W 072°54'0 0.0
2015-Mar-29 06:32N 41°18' W 072°54'0 0.0
2015-Mar-29 05:21N 41°18' W 072°54'0 0.0
2015-Mar-29 04:16N 41°18' W 072°54'0 0.0
2015-Mar-29 03:31N 41°18' W 072°54'0 0.0
2015-Mar-29 02:33N 41°18' W 072°54'0 0.0
2015-Mar-29 01:33N 41°18' W 072°54'0 0.0
2015-Mar-29 00:33N 41°18' W 072°54'0 0.3
2015-Mar-28 23:33N 41°18' W 072°54'6 6.1
2015-Mar-28 22:34N 41°12' W 072°57'7 6.7
2015-Mar-28 21:34N 41°08' W 073°04'6 6.2
2015-Mar-28 20:34N 41°05' W 073°12'7 6.7
2015-Mar-28 19:34N 41°03' W 073°20'7 6.9
2015-Mar-28 18:33N 41°01' W 073°29'8 7.2
2015-Mar-28 17:26N 40°57' W 073°38'7 7.1
2015-Mar-28 16:28N 40°52' W 073°45'5 5.4
2015-Mar-28 15:33N 40°48' W 073°49'6 6.3
2015-Mar-28 14:33N 40°47' W 073°56'7 7.3
2015-Mar-28 13:33N 40°40' W 074°02'5 4.9
2015-Mar-28 12:34N 40°36' W 074°02'7 7.1
2015-Mar-28 11:34N 40°34' W 073°53'7 5.9
2015-Mar-28 10:22N 40°38' W 073°45'0 0.0
2015-Mar-28 09:17N 40°38' W 073°45'0 0.0
2015-Mar-28 07:18N 40°38' W 073°45'0 0.0
2015-Mar-28 06:16N 40°38' W 073°45'0 0.0
2015-Mar-28 05:27N 40°38' W 073°45'0 0.0
2015-Mar-28 04:28N 40°38' W 073°45'0 0.0
2015-Mar-28 03:30N 40°38' W 073°45'0 0.0
2015-Mar-28 02:33N 40°38' W 073°45'0 0.0
2015-Mar-28 01:30N 40°38' W 073°45'5 5.1
2015-Mar-28 00:33N 40°35' W 073°50'7 7.0
2015-Mar-27 23:33N 40°34' W 073°59'7 6.8
2015-Mar-27 22:34N 40°40' W 074°01'7 7.4
2015-Mar-27 21:34N 40°47' W 073°56'8 7.3
2015-Mar-27 20:32N 40°49' W 073°47'6 4.9
2015-Mar-27 19:23N 40°51' W 073°40'1 1.2
2015-Mar-27 18:29N 40°50' W 073°39'0 0.0
2015-Mar-27 17:07N 40°50' W 073°39'0 0.0
2015-Mar-27 16:33N 40°50' W 073°39'0 0.0
2015-Mar-27 15:26N 40°50' W 073°39'0 0.0
2015-Mar-27 14:20N 40°50' W 073°39'0 0.0
2015-Mar-27 13:27N 40°50' W 073°39'0 0.0
2015-Mar-27 12:25N 40°50' W 073°39'2 0.9
2015-Mar-27 10:05N 40°52' W 073°40'14 5.6
2015-Mar-27 07:33N 40°46' W 073°57'3 3.3
2015-Mar-27 06:33N 40°43' W 073°59'5 5.4
2015-Mar-27 05:33N 40°39' W 074°04'0 0.0
2015-Mar-27 04:33N 40°39' W 074°04'0 0.0
2015-Mar-27 03:33N 40°39' W 074°04'2 2.4
2015-Mar-27 02:33N 40°39' W 074°07'2 2.2
2015-Mar-27 01:32N 40°39' W 074°04'0 0.3
2015-Mar-27 00:33N 40°39' W 074°04'0 0.1
2015-Mar-26 23:33N 40°39' W 074°04'5 5.0
2015-Mar-26 22:30N 40°39' W 074°11'1 1.0
2015-Mar-26 21:27N 40°38' W 074°12'2 1.9
2015-Mar-26 20:33N 40°38' W 074°10'0 0.0
2015-Mar-26 19:33N 40°38' W 074°10'0 0.0
2015-Mar-26 18:31N 40°38' W 074°10'0 0.0
2015-Mar-26 17:33N 40°38' W 074°10'0 0.0
2015-Mar-26 16:33N 40°38' W 074°10'0 0.0
2015-Mar-26 15:33N 40°38' W 074°10'0 0.0
2015-Mar-26 14:33N 40°38' W 074°10'1 1.3
2015-Mar-26 13:33N 40°39' W 074°08'2 2.2
2015-Mar-26 12:33N 40°39' W 074°05'1 1.0
2015-Mar-26 11:32N 40°39' W 074°07'0 0.2
2015-Mar-26 10:14N 40°39' W 074°07'0 0.0
2015-Mar-26 09:20N 40°39' W 074°07'0 0.0
2015-Mar-26 08:30N 40°39' W 074°07'8 2.5
2015-Mar-26 05:27N 40°34' W 074°14'3 0.6
2015-Mar-26 00:32N 40°36' W 074°12'4 3.5
2015-Mar-25 23:31N 40°39' W 074°09'1 1.3
2015-Mar-25 22:33N 40°39' W 074°07'0 0.0
2015-Mar-25 21:33N 40°39' W 074°07'0 0.0
2015-Mar-25 20:33N 40°39' W 074°07'0 0.0
2015-Mar-25 19:33N 40°39' W 074°07'0 0.0
2015-Mar-25 18:33N 40°39' W 074°07'0 0.0
2015-Mar-25 17:33N 40°39' W 074°07'0 0.0
2015-Mar-25 16:33N 40°39' W 074°07'0 0.0
2015-Mar-25 15:33N 40°39' W 074°07'1 0.7
2015-Mar-25 14:33N 40°39' W 074°08'1 1.3
2015-Mar-25 13:25N 40°39' W 074°10'4 4.4
2015-Mar-25 12:33N 40°39' W 074°05'1 0.5
2015-Mar-25 11:33N 40°39' W 074°04'2 2.1
2015-Mar-25 10:33N 40°39' W 074°07'0 0.0
2015-Mar-25 09:33N 40°39' W 074°07'0 0.0
2015-Mar-25 08:29N 40°39' W 074°07'0 0.0
2015-Mar-25 07:27N 40°39' W 074°07'0 0.0
2015-Mar-25 06:33N 40°39' W 074°07'0 0.0
2015-Mar-25 05:13N 40°39' W 074°07'0 0.5
2015-Mar-25 04:32N 40°39' W 074°07'0 0.1
2015-Mar-25 02:18N 40°39' W 074°07'1 1.6
2015-Mar-25 01:33N 40°38' W 074°09'1 1.0
2015-Mar-25 00:33N 40°38' W 074°10'0 0.0
2015-Mar-24 23:33N 40°38' W 074°10'0 0.0
2015-Mar-24 22:33N 40°38' W 074°10'0 0.0
2015-Mar-24 21:33N 40°38' W 074°10'0 0.0
2015-Mar-24 20:33N 40°38' W 074°10'5 4.5
2015-Mar-24 19:33N 40°39' W 074°04'6 6.4
2015-Mar-24 18:33N 40°44' W 073°58'13 6.5
2015-Mar-24 16:30N 40°52' W 073°44'5 1.6
2015-Mar-24 13:32N 40°50' W 073°39'0 0.0
2015-Mar-24 12:32N 40°50' W 073°39'0 0.0
2015-Mar-24 11:30N 40°50' W 073°39'16 2.3
2015-Mar-24 04:33N 40°44' W 073°58'8 7.7
2015-Mar-24 03:33N 40°39' W 074°06'5 4.1
2015-Mar-24 02:22N 40°38' W 074°12'1 1.5
2015-Mar-24 01:33N 40°39' W 074°11'1 1.1
2015-Mar-24 00:33N 40°38' W 074°10'0 0.0
2015-Mar-23 23:33N 40°38' W 074°10'0 0.0
2015-Mar-23 22:33N 40°38' W 074°10'0 0.0
2015-Mar-23 21:33N 40°38' W 074°10'0 0.0
2015-Mar-23 20:33N 40°38' W 074°10'0 0.0
2015-Mar-23 19:33N 40°38' W 074°10'0 0.4
2015-Mar-23 18:33N 40°38' W 074°09'5 5.0
2015-Mar-23 17:33N 40°39' W 074°03'8 7.5
2015-Mar-23 16:33N 40°45' W 073°57'12 5.5
2015-Mar-23 14:18N 40°53' W 073°44'6 7.6
2015-Mar-23 13:33N 40°56' W 073°39'8 7.6
2015-Mar-23 12:33N 40°60' W 073°30'8 7.7
2015-Mar-23 11:33N 41°03' W 073°21'10 7.8
2015-Mar-23 10:12N 41°06' W 073°07'5 7.6
2015-Mar-23 09:34N 41°09' W 073°02'7 7.4
2015-Mar-23 08:34N 41°14' W 072°55'4 3.0
2015-Mar-23 07:18N 41°18' W 072°54'  
Track history (hours):
 
Tides and Currents Weather Stations Pressure Air Temp Water Temp Dewpoint Dewpoint Depression Visibility Wind Speed Wind Dir Waves Ship Positions

Taurus

Owner: Kirby Offshore Marine, LLC, Staten Island, NY. More information available from US FCC via Universal Licensing System and Coast Guard Vessel Documentation Center.

Last reported at 2015-Apr-02 05:33 UTC. Time now 2015-Apr-02 06:32 UTC.
Position N 40°38' W 074°10'.

Length 24 m.

Type: Tug. MMSI: 366910990.

Date/timePositionNaut miles runAvg speedWind from/ knotsBaromVisibWave heightAir tempDewpointWater temp
2015-Apr-02 05:33N 40°38' W 074°10'0 0.0
2015-Apr-02 04:33N 40°38' W 074°10'0 0.0
2015-Apr-02 03:33N 40°38' W 074°10'0 0.0
2015-Apr-02 02:33N 40°38' W 074°10'0 0.0
2015-Apr-02 01:33N 40°38' W 074°10'0 0.0
2015-Apr-02 00:33N 40°38' W 074°10'0 0.0
2015-Apr-01 23:33N 40°38' W 074°10'0 0.0
2015-Apr-01 22:33N 40°38' W 074°10'1 0.8
2015-Apr-01 21:33N 40°39' W 074°11'5 5.0
2015-Apr-01 20:34N 40°40' W 074°04'0 0.0
2015-Apr-01 19:33N 40°40' W 074°04'0 0.0
2015-Apr-01 18:33N 40°40' W 074°04'0 0.0
2015-Apr-01 17:33N 40°40' W 074°04'3 3.5
2015-Apr-01 16:33N 40°38' W 074°09'1 0.9
2015-Apr-01 15:33N 40°38' W 074°10'0 0.0
2015-Apr-01 14:33N 40°38' W 074°10'0 0.0
2015-Apr-01 13:33N 40°38' W 074°10'0 0.0
2015-Apr-01 12:33N 40°38' W 074°10'0 0.0
2015-Apr-01 11:33N 40°38' W 074°10'0 0.0
2015-Apr-01 10:33N 40°38' W 074°10'0 0.0
2015-Apr-01 09:33N 40°38' W 074°10'0 0.0
2015-Apr-01 08:33N 40°38' W 074°10'0 0.0
2015-Apr-01 07:33N 40°38' W 074°10'0 0.0
2015-Apr-01 06:33N 40°38' W 074°10'0 0.0
2015-Apr-01 05:33N 40°38' W 074°10'4 4.3
2015-Apr-01 04:33N 40°40' W 074°04'1 0.6
2015-Apr-01 03:33N 40°39' W 074°05'7 6.8
2015-Apr-01 02:30N 40°35' W 074°13'3 2.9
2015-Apr-01 01:33N 40°33' W 074°15'5 4.9
2015-Apr-01 00:33N 40°37' W 074°12'2 2.2
2015-Mar-31 23:33N 40°38' W 074°10'0 0.0
2015-Mar-31 22:33N 40°38' W 074°10'0 0.0
2015-Mar-31 21:33N 40°38' W 074°10'0 0.0
2015-Mar-31 20:33N 40°38' W 074°10'0 0.0
2015-Mar-31 19:33N 40°38' W 074°10'0 0.0
2015-Mar-31 18:33N 40°38' W 074°10'1 0.7
2015-Mar-31 17:33N 40°39' W 074°11'7 6.7
2015-Mar-31 16:32N 40°33' W 074°15'2 2.2
2015-Mar-31 15:30N 40°34' W 074°13'5 5.7
2015-Mar-31 14:33N 40°39' W 074°08'3 3.3
2015-Mar-31 13:33N 40°39' W 074°04'5 5.4
2015-Mar-31 12:33N 40°43' W 073°59'7 6.8
2015-Mar-31 11:33N 40°48' W 073°54'7 6.3
2015-Mar-31 10:25N 40°51' W 073°45'10 7.8
2015-Mar-31 09:11N 40°58' W 073°35'5 8.2
2015-Mar-31 08:33N 41°00' W 073°29'8 8.1
2015-Mar-31 07:33N 41°03' W 073°20'9 7.9
2015-Mar-31 06:21N 41°06' W 073°08'6 8.0
2015-Mar-31 05:33N 41°10' W 073°01'7 7.2
2015-Mar-31 04:33N 41°16' W 072°55'2 2.4
2015-Mar-31 03:33N 41°18' W 072°54'0 0.0
2015-Mar-31 02:33N 41°18' W 072°54'0 0.0
2015-Mar-31 01:33N 41°18' W 072°54'0 0.0
2015-Mar-31 00:27N 41°18' W 072°54'0 0.0
2015-Mar-30 23:32N 41°18' W 072°54'0 0.0
2015-Mar-30 22:28N 41°18' W 072°54'0 0.0
2015-Mar-30 21:32N 41°18' W 072°54'0 0.0
2015-Mar-30 20:33N 41°18' W 072°54'0 0.0
2015-Mar-30 19:33N 41°18' W 072°54'0 0.0
2015-Mar-30 18:33N 41°18' W 072°54'1 0.5
2015-Mar-30 17:33N 41°18' W 072°54'0 0.0
2015-Mar-30 16:32N 41°18' W 072°54'0 0.0
2015-Mar-30 15:32N 41°18' W 072°54'0 0.0
2015-Mar-30 14:33N 41°18' W 072°54'0 0.2
2015-Mar-30 13:33N 41°17' W 072°55'6 6.5
2015-Mar-30 12:34N 41°12' W 072°58'8 7.6
2015-Mar-30 11:33N 41°07' W 073°06'7 7.2
2015-Mar-30 10:34N 41°04' W 073°15'7 7.2
2015-Mar-30 09:34N 41°02' W 073°24'7 7.4
2015-Mar-30 08:34N 40°59' W 073°33'9 7.7
2015-Mar-30 07:25N 40°54' W 073°42'8 7.7
2015-Mar-30 06:24N 40°48' W 073°50'7 7.8
2015-Mar-30 05:34N 40°45' W 073°58'7 6.9
2015-Mar-30 04:33N 40°40' W 074°03'7 6.8
2015-Mar-30 03:33N 40°38' W 074°12'2 2.3
2015-Mar-30 02:34N 40°36' W 074°12'3 2.9
2015-Mar-30 01:34N 40°38' W 074°10'0 0.0
2015-Mar-30 00:34N 40°38' W 074°10'3 2.5
2015-Mar-29 23:33N 40°39' W 074°07'0 0.0
2015-Mar-29 22:34N 40°39' W 074°07'1 0.5
2015-Mar-29 21:34N 40°39' W 074°07'2 2.0
2015-Mar-29 20:34N 40°38' W 074°10'0 0.0
2015-Mar-29 19:34N 40°38' W 074°10'0 0.0
2015-Mar-29 18:34N 40°38' W 074°10'3 2.9
2015-Mar-29 17:33N 40°36' W 074°12'6 6.1
2015-Mar-29 16:33N 40°39' W 074°05'9 8.8
2015-Mar-29 15:33N 40°46' W 073°57'8 8.4
2015-Mar-29 14:33N 40°49' W 073°47'11 8.6
2015-Mar-29 13:16N 40°57' W 073°38'6 8.8
2015-Mar-29 12:33N 40°60' W 073°30'9 8.8
2015-Mar-29 11:33N 41°03' W 073°20'9 8.8
2015-Mar-29 10:33N 41°06' W 073°09'9 9.2
2015-Mar-29 09:34N 41°12' W 072°59'7 7.2
2015-Mar-29 08:33N 41°18' W 072°54'0 0.0
2015-Mar-29 07:33N 41°18' W 072°54'0 0.0
2015-Mar-29 06:32N 41°18' W 072°54'0 0.0
2015-Mar-29 05:21N 41°18' W 072°54'0 0.0
2015-Mar-29 04:16N 41°18' W 072°54'0 0.0
2015-Mar-29 03:31N 41°18' W 072°54'0 0.0
2015-Mar-29 02:33N 41°18' W 072°54'0 0.0
2015-Mar-29 01:33N 41°18' W 072°54'0 0.0
2015-Mar-29 00:33N 41°18' W 072°54'0 0.3
2015-Mar-28 23:33N 41°18' W 072°54'6 6.1
2015-Mar-28 22:34N 41°12' W 072°57'7 6.7
2015-Mar-28 21:34N 41°08' W 073°04'6 6.2
2015-Mar-28 20:34N 41°05' W 073°12'7 6.7
2015-Mar-28 19:34N 41°03' W 073°20'7 6.9
2015-Mar-28 18:33N 41°01' W 073°29'8 7.2
2015-Mar-28 17:26N 40°57' W 073°38'7 7.1
2015-Mar-28 16:28N 40°52' W 073°45'5 5.4
2015-Mar-28 15:33N 40°48' W 073°49'6 6.3
2015-Mar-28 14:33N 40°47' W 073°56'7 7.3
2015-Mar-28 13:33N 40°40' W 074°02'5 4.9
2015-Mar-28 12:34N 40°36' W 074°02'7 7.1
2015-Mar-28 11:34N 40°34' W 073°53'7 5.9
2015-Mar-28 10:22N 40°38' W 073°45'0 0.0
2015-Mar-28 09:17N 40°38' W 073°45'0 0.0
2015-Mar-28 07:18N 40°38' W 073°45'0 0.0
2015-Mar-28 06:16N 40°38' W 073°45'0 0.0
2015-Mar-28 05:27N 40°38' W 073°45'0 0.0
2015-Mar-28 04:28N 40°38' W 073°45'0 0.0
2015-Mar-28 03:30N 40°38' W 073°45'0 0.0
2015-Mar-28 02:33N 40°38' W 073°45'0 0.0
2015-Mar-28 01:30N 40°38' W 073°45'5 5.1
2015-Mar-28 00:33N 40°35' W 073°50'7 7.0
2015-Mar-27 23:33N 40°34' W 073°59'7 6.8
2015-Mar-27 22:34N 40°40' W 074°01'7 7.4
2015-Mar-27 21:34N 40°47' W 073°56'8 7.3
2015-Mar-27 20:32N 40°49' W 073°47'6 4.9
2015-Mar-27 19:23N 40°51' W 073°40'1 1.2
2015-Mar-27 18:29N 40°50' W 073°39'0 0.0
2015-Mar-27 17:07N 40°50' W 073°39'0 0.0
2015-Mar-27 16:33N 40°50' W 073°39'0 0.0
2015-Mar-27 15:26N 40°50' W 073°39'0 0.0
2015-Mar-27 14:20N 40°50' W 073°39'0 0.0
2015-Mar-27 13:27N 40°50' W 073°39'0 0.0
2015-Mar-27 12:25N 40°50' W 073°39'2 0.9
2015-Mar-27 10:05N 40°52' W 073°40'14 5.6
2015-Mar-27 07:33N 40°46' W 073°57'3 3.3
2015-Mar-27 06:33N 40°43' W 073°59'5 5.4
2015-Mar-27 05:33N 40°39' W 074°04'0 0.0
2015-Mar-27 04:33N 40°39' W 074°04'0 0.0
2015-Mar-27 03:33N 40°39' W 074°04'2 2.4
2015-Mar-27 02:33N 40°39' W 074°07'2 2.2
2015-Mar-27 01:32N 40°39' W 074°04'0 0.3
2015-Mar-27 00:33N 40°39' W 074°04'0 0.1
2015-Mar-26 23:33N 40°39' W 074°04'5 5.0
2015-Mar-26 22:30N 40°39' W 074°11'1 1.0
2015-Mar-26 21:27N 40°38' W 074°12'2 1.9
2015-Mar-26 20:33N 40°38' W 074°10'0 0.0
2015-Mar-26 19:33N 40°38' W 074°10'0 0.0
2015-Mar-26 18:31N 40°38' W 074°10'0 0.0
2015-Mar-26 17:33N 40°38' W 074°10'0 0.0
2015-Mar-26 16:33N 40°38' W 074°10'0 0.0
2015-Mar-26 15:33N 40°38' W 074°10'0 0.0
2015-Mar-26 14:33N 40°38' W 074°10'1 1.3
2015-Mar-26 13:33N 40°39' W 074°08'2 2.2
2015-Mar-26 12:33N 40°39' W 074°05'1 1.0
2015-Mar-26 11:32N 40°39' W 074°07'0 0.2
2015-Mar-26 10:14N 40°39' W 074°07'0 0.0
2015-Mar-26 09:20N 40°39' W 074°07'0 0.0
2015-Mar-26 08:30N 40°39' W 074°07'8 2.5
2015-Mar-26 05:27N 40°34' W 074°14'3 0.6
2015-Mar-26 00:32N 40°36' W 074°12'4 3.5
2015-Mar-25 23:31N 40°39' W 074°09'1 1.3
2015-Mar-25 22:33N 40°39' W 074°07'0 0.0
2015-Mar-25 21:33N 40°39' W 074°07'0 0.0
2015-Mar-25 20:33N 40°39' W 074°07'0 0.0
2015-Mar-25 19:33N 40°39' W 074°07'0 0.0
2015-Mar-25 18:33N 40°39' W 074°07'0 0.0
2015-Mar-25 17:33N 40°39' W 074°07'0 0.0
2015-Mar-25 16:33N 40°39' W 074°07'0 0.0
2015-Mar-25 15:33N 40°39' W 074°07'1 0.7
2015-Mar-25 14:33N 40°39' W 074°08'1 1.3
2015-Mar-25 13:25N 40°39' W 074°10'4 4.4
2015-Mar-25 12:33N 40°39' W 074°05'1 0.5
2015-Mar-25 11:33N 40°39' W 074°04'2 2.1
2015-Mar-25 10:33N 40°39' W 074°07'0 0.0
2015-Mar-25 09:33N 40°39' W 074°07'0 0.0
2015-Mar-25 08:29N 40°39' W 074°07'0 0.0
2015-Mar-25 07:27N 40°39' W 074°07'0 0.0
2015-Mar-25 06:33N 40°39' W 074°07'0 0.0
2015-Mar-25 05:13N 40°39' W 074°07'0 0.5
2015-Mar-25 04:32N 40°39' W 074°07'0 0.1
2015-Mar-25 02:18N 40°39' W 074°07'1 1.6
2015-Mar-25 01:33N 40°38' W 074°09'1 1.0
2015-Mar-25 00:33N 40°38' W 074°10'0 0.0
2015-Mar-24 23:33N 40°38' W 074°10'0 0.0
2015-Mar-24 22:33N 40°38' W 074°10'0 0.0
2015-Mar-24 21:33N 40°38' W 074°10'0 0.0
2015-Mar-24 20:33N 40°38' W 074°10'5 4.5
2015-Mar-24 19:33N 40°39' W 074°04'6 6.4
2015-Mar-24 18:33N 40°44' W 073°58'13 6.5
2015-Mar-24 16:30N 40°52' W 073°44'5 1.6
2015-Mar-24 13:32N 40°50' W 073°39'0 0.0
2015-Mar-24 12:32N 40°50' W 073°39'0 0.0
2015-Mar-24 11:30N 40°50' W 073°39'16 2.3
2015-Mar-24 04:33N 40°44' W 073°58'8 7.7
2015-Mar-24 03:33N 40°39' W 074°06'5 4.1
2015-Mar-24 02:22N 40°38' W 074°12'1 1.5
2015-Mar-24 01:33N 40°39' W 074°11'1 1.1
2015-Mar-24 00:33N 40°38' W 074°10'0 0.0
2015-Mar-23 23:33N 40°38' W 074°10'0 0.0
2015-Mar-23 22:33N 40°38' W 074°10'0 0.0
2015-Mar-23 21:33N 40°38' W 074°10'0 0.0
2015-Mar-23 20:33N 40°38' W 074°10'0 0.0
2015-Mar-23 19:33N 40°38' W 074°10'0 0.4
2015-Mar-23 18:33N 40°38' W 074°09'5 5.0
2015-Mar-23 17:33N 40°39' W 074°03'8 7.5
2015-Mar-23 16:33N 40°45' W 073°57'12 5.5
2015-Mar-23 14:18N 40°53' W 073°44'6 7.6
2015-Mar-23 13:33N 40°56' W 073°39'8 7.6
2015-Mar-23 12:33N 40°60' W 073°30'8 7.7
2015-Mar-23 11:33N 41°03' W 073°21'10 7.8
2015-Mar-23 10:12N 41°06' W 073°07'5 7.6
2015-Mar-23 09:34N 41°09' W 073°02'7 7.4
2015-Mar-23 08:34N 41°14' W 072°55'4 3.0
2015-Mar-23 07:18N 41°18' W 072°54'  

Dump ship's entire track history